Abbott, Texas
Current Conditions -  °F | °C
As of 9:35 AM on Saturday 25 Oct 2014 (Local Time) from KINJ Reporting Station
Clear Clear  
Wind Chill: 73°   Ceiling: Unl
Heat Index: 73°   Visibility: 10mi
Dew Point: 58°   Wind: 9mph
Humidity: 60%   Direction: 190°S
Pressure: 30.18"   Gusts: NA
Location:  31.88°N, 97.07°W
Report Text: KINJ 251435Z AUTO 19008KT 10SM CLR 23/15 A3018 RMK AO2 T02250145
Loading
Personal Weather Stations






























Interactive Weather Map
Tropical Storm Tracking
New forecast layout! Learn more

10-Day Weather Forecast

Advertisements
Track Severe Weather on mobile